Time;durP1;ratioP1;P1;durP2;ratioP2;P2;SDS_P1;SDS_P2;PMS_P1;PMS_P2;Temp;Humidity;BMP_temperature;BMP_pressure;BME280_temperature;BME280_humidity;BME280_pressure;Samples;Min_cycle;Max_cycle;Signal;HPM_P1;HPM_P2
2023/03/18 00:00:22;;;;;;;3.67;1.70;;;12.80;99.90;;;;;;5060309;28;20082;-82
2023/03/18 00:02:48;;;;;;;4.60;2.03;;;12.70;99.90;;;;;;5063689;28;20141;-82
2023/03/18 00:05:14;;;;;;;4.35;2.20;;;12.70;99.90;;;;;;5062907;28;20438;-84
2023/03/18 00:07:40;;;;;;;4.88;2.58;;;12.70;99.90;;;;;;5062634;28;20123;-84
2023/03/18 00:10:08;;;;;;;5.68;2.40;;;12.70;99.90;;;;;;5057518;28;20029;-85
2023/03/18 00:12:34;;;;;;;5.47;2.50;;;12.70;99.90;;;;;;5063816;28;20024;-83
2023/03/18 00:15:01;;;;;;;4.60;2.50;;;12.60;99.90;;;;;;5063506;28;20115;-85
2023/03/18 00:17:27;;;;;;;5.55;2.42;;;12.60;99.90;;;;;;5062594;28;20153;-84
2023/03/18 00:19:53;;;;;;;4.13;2.20;;;12.60;99.90;;;;;;5056952;28;20532;-85
2023/03/18 00:22:19;;;;;;;5.20;2.53;;;12.50;99.90;;;;;;5066756;28;20047;-83
2023/03/18 00:24:44;;;;;;;5.47;2.38;;;12.40;99.90;;;;;;5067382;28;20470;-83
2023/03/18 00:27:10;;;;;;;5.72;2.60;;;12.40;99.90;;;;;;5072737;28;20036;-83
2023/03/18 00:29:36;;;;;;;4.85;2.25;;;12.40;99.90;;;;;;5067665;28;20021;-83
2023/03/18 00:32:02;;;;;;;4.40;2.42;;;12.30;99.90;;;;;;5071463;28;20495;-83
2023/03/18 00:34:27;;;;;;;6.57;2.63;;;12.40;99.90;;;;;;5072799;28;20055;-84
2023/03/18 00:36:55;;;;;;;4.78;2.40;;;12.40;99.90;;;;;;5071458;28;20493;-85
2023/03/18 00:39:25;;;;;;;6.30;2.90;;;12.40;99.90;;;;;;5068516;28;20036;-83
2023/03/18 00:41:54;;;;;;;4.72;2.47;;;12.40;99.90;;;;;;5072146;28;20024;-83
2023/03/18 00:44:20;;;;;;;4.20;2.47;;;12.30;99.90;;;;;;5072876;28;20034;-84
2023/03/18 00:46:46;;;;;;;5.63;2.60;;;12.40;99.90;;;;;;5070860;28;20145;-82
2023/03/18 00:49:12;;;;;;;3.60;2.25;;;12.40;99.90;;;;;;5069784;28;20032;-83
2023/03/18 00:51:40;;;;;;;5.93;2.80;;;12.40;99.90;;;;;;5073455;28;20397;-82
2023/03/18 00:54:09;;;;;;;3.75;2.45;;;12.40;99.90;;;;;;5074404;28;20025;-84
2023/03/18 00:56:36;;;;;;;4.70;2.80;;;12.40;99.90;;;;;;5068128;28;20045;-84
2023/03/18 00:59:03;;;;;;;4.30;2.30;;;12.40;99.90;;;;;;5075182;28;20100;-83
2023/03/18 01:01:32;;;;;;;4.45;2.50;;;12.40;99.90;;;;;;5072301;28;20441;-83
2023/03/18 01:03:58;;;;;;;5.88;2.80;;;12.30;99.90;;;;;;5070206;28;20052;-83
2023/03/18 01:06:27;;;;;;;5.30;2.67;;;12.30;99.90;;;;;;5071264;28;20774;-82
2023/03/18 01:08:55;;;;;;;6.57;3.13;;;12.30;99.90;;;;;;5070592;28;20089;-82
2023/03/18 01:11:21;;;;;;;5.18;2.90;;;12.30;99.90;;;;;;5079840;28;20029;-84
2023/03/18 01:13:48;;;;;;;5.90;3.05;;;12.30;99.90;;;;;;5063252;28;20527;-83
2023/03/18 01:16:14;;;;;;;5.60;2.83;;;12.30;99.90;;;;;;5079699;28;20807;-84
2023/03/18 01:18:40;;;;;;;4.78;2.95;;;12.30;99.90;;;;;;5060627;28;20031;-84
2023/03/18 01:21:07;;;;;;;4.90;2.95;;;12.30;99.90;;;;;;5066435;28;20032;-85
2023/03/18 01:23:34;;;;;;;5.45;3.25;;;12.30;99.90;;;;;;5061986;28;20016;-82
2023/03/18 01:26:00;;;;;;;5.43;2.92;;;12.30;99.90;;;;;;5063790;28;20039;-84
2023/03/18 01:28:26;;;;;;;4.82;2.83;;;12.30;99.90;;;;;;5067159;28;20576;-84
2023/03/18 01:30:52;;;;;;;4.53;2.88;;;12.30;99.90;;;;;;5063479;28;20132;-84
2023/03/18 01:33:18;;;;;;;4.10;2.80;;;12.30;99.90;;;;;;5063994;28;20054;-83
2023/03/18 01:35:46;;;;;;;5.05;2.97;;;12.20;99.90;;;;;;5068362;28;20028;-84
2023/03/18 01:38:12;;;;;;;5.90;3.28;;;12.30;99.90;;;;;;5067978;28;20025;-84
2023/03/18 01:40:41;;;;;;;6.35;3.40;;;12.30;99.90;;;;;;5068680;28;22271;-83
2023/03/18 01:43:11;;;;;;;5.65;3.50;;;12.20;99.90;;;;;;5068525;28;20107;-84
2023/03/18 01:45:37;;;;;;;4.72;2.83;;;12.30;99.90;;;;;;5068826;28;20056;-84
2023/03/18 01:48:03;;;;;;;4.53;3.00;;;12.20;99.90;;;;;;5068668;28;20023;-82
2023/03/18 01:50:34;;;;;;;4.88;2.58;;;12.10;99.90;;;;;;5060196;28;20024;-83
2023/03/18 01:53:13;;;;;;;7.90;3.92;;;12.10;99.90;;;;;;5061577;28;20553;-84
2023/03/18 01:55:40;;;;;;;6.75;3.00;;;12.20;99.90;;;;;;5067728;28;20129;-84
2023/03/18 01:58:14;;;;;;;6.60;3.88;;;12.10;99.90;;;;;;5065646;28;20132;-84
2023/03/18 02:00:45;;;;;;;5.93;3.60;;;12.20;99.90;;;;;;5065742;28;20194;-84
2023/03/18 02:03:12;;;;;;;5.63;3.65;;;12.00;99.90;;;;;;5066406;28;21971;-85
2023/03/18 02:05:42;;;;;;;8.57;3.88;;;12.10;99.90;;;;;;5061207;28;20029;-84
2023/03/18 02:08:08;;;;;;;6.78;3.70;;;12.10;99.90;;;;;;5084278;28;20030;-84
2023/03/18 02:10:34;;;;;;;6.53;3.83;;;12.10;99.90;;;;;;5068687;28;20832;-84
2023/03/18 02:13:09;;;;;;;5.38;3.78;;;12.10;99.90;;;;;;5074377;28;20031;-81
2023/03/18 02:15:41;;;;;;;5.88;3.80;;;12.10;99.90;;;;;;5067573;28;20041;-83
2023/03/18 02:18:32;;;;;;;6.93;3.97;;;12.10;99.90;;;;;;5067835;28;20030;-84
2023/03/18 02:21:36;;;;;;;5.30;3.20;;;12.10;99.90;;;;;;5067444;28;20780;-83
2023/03/18 02:24:33;;;;;;;6.70;3.53;;;12.00;99.90;;;;;;5066477;28;20058;-82
2023/03/18 02:27:13;;;;;;;6.30;3.40;;;12.00;99.90;;;;;;5066546;28;20028;-83
2023/03/18 02:29:41;;;;;;;5.97;3.17;;;11.90;99.90;;;;;;5065107;28;20028;-84
2023/03/18 02:32:07;;;;;;;5.18;3.50;;;11.90;99.90;;;;;;5066638;28;20489;-83
2023/03/18 02:34:34;;;;;;;6.22;3.40;;;11.80;99.90;;;;;;5066767;28;20474;-84
2023/03/18 02:37:03;;;;;;;6.45;3.50;;;11.80;99.90;;;;;;5066932;28;20060;-83
2023/03/18 02:39:32;;;;;;;5.80;3.35;;;11.70;99.90;;;;;;5065113;28;20562;-85
2023/03/18 02:41:58;;;;;;;6.05;3.60;;;11.70;99.90;;;;;;5060747;28;20528;-84
2023/03/18 02:44:24;;;;;;;5.10;3.28;;;11.70;99.90;;;;;;5060932;28;20025;-84
2023/03/18 02:47:01;;;;;;;5.57;2.78;;;11.60;99.90;;;;;;5063707;28;20031;-85
2023/03/18 02:49:27;;;;;;;5.97;3.47;;;11.60;99.90;;;;;;5066045;28;20028;-83
2023/03/18 02:51:53;;;;;;;5.72;2.80;;;11.60;99.90;;;;;;5063955;28;20161;-83
2023/03/18 02:54:28;;;;;;;5.10;2.78;;;11.60;99.90;;;;;;5068029;28;20528;-86
2023/03/18 02:56:55;;;;;;;7.43;3.47;;;11.60;99.90;;;;;;5066055;28;20032;-85
2023/03/18 02:59:21;;;;;;;5.07;3.25;;;11.60;99.90;;;;;;5066439;28;20040;-87
2023/03/18 03:01:50;;;;;;;5.63;3.40;;;11.60;99.90;;;;;;5064396;28;20024;-83
2023/03/18 03:04:16;;;;;;;6.43;3.70;;;11.60;99.90;;;;;;5064315;28;20036;-83
2023/03/18 03:06:43;;;;;;;7.15;4.40;;;11.60;99.90;;;;;;5063567;28;20074;-83
2023/03/18 03:09:12;;;;;;;7.15;4.47;;;11.70;99.90;;;;;;5066200;28;20025;-83
2023/03/18 03:11:39;;;;;;;10.48;5.00;;;11.70;99.90;;;;;;5083834;28;20032;-84
2023/03/18 03:14:05;;;;;;;9.48;5.60;;;11.70;99.90;;;;;;5064877;28;20086;-83
2023/03/18 03:16:31;;;;;;;10.90;5.55;;;11.70;99.90;;;;;;5062534;28;20021;-84
2023/03/18 03:18:57;;;;;;;9.85;5.75;;;11.70;99.90;;;;;;5066700;28;20772;-83
2023/03/18 03:21:23;;;;;;;8.45;5.60;;;11.70;99.90;;;;;;5067771;28;20100;-84
2023/03/18 03:23:49;;;;;;;9.13;5.75;;;11.70;99.90;;;;;;5071122;28;20115;-84
2023/03/18 03:26:15;;;;;;;7.97;5.45;;;11.70;99.90;;;;;;5060738;28;20440;-84
2023/03/18 03:28:41;;;;;;;9.65;5.80;;;11.70;99.90;;;;;;5066373;28;20033;-83
2023/03/18 03:31:08;;;;;;;9.38;5.93;;;11.70;99.90;;;;;;5061974;28;20082;-84
2023/03/18 03:33:35;;;;;;;10.25;5.07;;;11.80;99.90;;;;;;5067110;28;20505;-83
2023/03/18 03:36:00;;;;;;;8.18;4.78;;;11.80;99.90;;;;;;5080885;28;20055;-82
2023/03/18 03:38:26;;;;;;;7.82;4.68;;;11.80;99.90;;;;;;5059077;28;20565;-84
2023/03/18 03:40:53;;;;;;;8.32;5.20;;;11.80;99.90;;;;;;5066171;28;20090;-85
2023/03/18 03:43:19;;;;;;;12.55;6.22;;;11.80;99.90;;;;;;5066623;28;20559;-84
2023/03/18 03:45:44;;;;;;;9.40;5.32;;;11.80;99.90;;;;;;5062784;28;20032;-84
2023/03/18 03:48:11;;;;;;;8.65;5.70;;;11.70;99.90;;;;;;5081005;28;20027;-83
2023/03/18 03:50:38;;;;;;;9.00;5.38;;;11.60;99.90;;;;;;5062103;28;20174;-84
2023/03/18 03:53:05;;;;;;;8.50;5.40;;;11.60;99.90;;;;;;5079762;28;20544;-83
2023/03/18 03:55:32;;;;;;;7.75;5.32;;;11.50;99.90;;;;;;5064968;28;20431;-83
2023/03/18 03:57:58;;;;;;;9.30;5.63;;;11.50;99.90;;;;;;5057079;28;20032;-83
2023/03/18 04:00:24;;;;;;;10.15;5.32;;;11.50;99.90;;;;;;5064419;28;20552;-83
2023/03/18 04:02:52;;;;;;;8.80;5.68;;;11.50;99.90;;;;;;5065351;28;20032;-83
2023/03/18 04:05:20;;;;;;;9.30;6.07;;;11.50;99.90;;;;;;5080542;28;20029;-85
2023/03/18 04:07:46;;;;;;;10.40;6.13;;;11.50;99.90;;;;;;5061002;28;20035;-84
2023/03/18 04:10:16;;;;;;;9.20;5.95;;;11.40;99.90;;;;;;5064597;28;20028;-85
2023/03/18 04:12:44;;;;;;;10.82;6.25;;;11.40;99.90;;;;;;5067086;28;20024;-85
2023/03/18 04:15:10;;;;;;;9.48;6.18;;;11.40;99.90;;;;;;5059655;28;20435;-85
2023/03/18 04:17:36;;;;;;;8.65;6.45;;;11.40;99.90;;;;;;5065865;28;20028;-85
2023/03/18 04:20:04;;;;;;;11.90;7.50;;;11.40;99.90;;;;;;5064055;28;20127;-84
2023/03/18 04:22:33;;;;;;;11.35;7.40;;;11.40;99.90;;;;;;5062880;28;22217;-84
2023/03/18 04:24:59;;;;;;;11.38;7.97;;;11.40;99.90;;;;;;5066022;28;20572;-84
2023/03/18 04:27:26;;;;;;;9.82;6.90;;;11.40;99.90;;;;;;5065522;28;20875;-84
2023/03/18 04:29:53;;;;;;;11.32;7.32;;;11.30;99.90;;;;;;5059636;28;20386;-84
2023/03/18 04:32:19;;;;;;;10.13;6.82;;;11.30;99.90;;;;;;5064017;28;20138;-84
2023/03/18 04:34:45;;;;;;;10.25;7.65;;;11.30;99.90;;;;;;5064905;28;20040;-84
2023/03/18 04:37:13;;;;;;;11.05;7.20;;;11.30;99.90;;;;;;5064044;28;20031;-84
2023/03/18 04:39:39;;;;;;;10.55;7.32;;;11.30;99.90;;;;;;5064080;28;20093;-84
2023/03/18 04:42:05;;;;;;;10.60;7.32;;;11.20;99.90;;;;;;5062732;28;20094;-84
2023/03/18 04:44:31;;;;;;;10.88;7.72;;;11.20;99.90;;;;;;5062814;28;20032;-84
2023/03/18 04:46:56;;;;;;;11.48;7.30;;;11.20;99.90;;;;;;5057342;28;20048;-83
2023/03/18 04:49:23;;;;;;;12.50;8.18;;;11.20;99.90;;;;;;5057912;28;20030;-84
2023/03/18 04:51:49;;;;;;;12.98;7.72;;;11.20;99.90;;;;;;5062686;28;20073;-85
2023/03/18 04:54:14;;;;;;;10.98;7.78;;;11.20;99.90;;;;;;5062328;28;20166;-84
2023/03/18 04:56:40;;;;;;;10.63;7.07;;;11.20;99.90;;;;;;5057118;28;20016;-83
2023/03/18 04:59:06;;;;;;;10.38;7.10;;;11.20;99.90;;;;;;5077847;28;20099;-84
2023/03/18 05:01:32;;;;;;;11.27;7.70;;;11.20;99.90;;;;;;5058224;28;20378;-85
2023/03/18 05:03:58;;;;;;;10.93;7.43;;;11.20;99.90;;;;;;5061330;28;20063;-85
2023/03/18 05:06:30;;;;;;;12.77;7.65;;;11.20;99.90;;;;;;5063804;28;20064;-85
2023/03/18 05:08:57;;;;;;;14.63;7.90;;;11.20;99.90;;;;;;5060363;28;20477;-84
2023/03/18 05:11:24;;;;;;;10.50;7.28;;;11.20;99.90;;;;;;5059409;28;20058;-85
2023/03/18 05:13:50;;;;;;;12.23;7.72;;;11.10;99.90;;;;;;5064075;28;20495;-84
2023/03/18 05:16:17;;;;;;;9.43;6.97;;;11.10;99.90;;;;;;5062013;28;20031;-84
2023/03/18 05:18:43;;;;;;;12.85;7.43;;;11.10;99.90;;;;;;5065472;28;20033;-84
2023/03/18 05:21:09;;;;;;;10.60;6.82;;;11.10;99.90;;;;;;5079957;28;20649;-85
2023/03/18 05:23:35;;;;;;;11.38;7.68;;;11.10;99.90;;;;;;5061428;28;20107;-85
2023/03/18 05:26:02;;;;;;;13.32;8.23;;;11.10;99.90;;;;;;5063703;28;20032;-85
2023/03/18 05:28:27;;;;;;;12.02;7.38;;;11.00;99.90;;;;;;5063593;28;20017;-84
2023/03/18 05:30:53;;;;;;;10.23;7.43;;;11.00;99.90;;;;;;5064477;28;20037;-84
2023/03/18 05:33:19;;;;;;;11.48;8.00;;;11.10;99.90;;;;;;5064574;28;20031;-85
2023/03/18 05:35:46;;;;;;;12.70;8.73;;;11.10;99.90;;;;;;5060672;28;20025;-84
2023/03/18 05:38:12;;;;;;;11.05;7.68;;;11.10;99.90;;;;;;5058887;28;20028;-84
2023/03/18 05:40:38;;;;;;;15.18;8.90;;;11.10;99.90;;;;;;5064268;28;20444;-85
2023/03/18 05:43:04;;;;;;;12.95;8.57;;;11.10;99.90;;;;;;5060035;28;20608;-84
2023/03/18 05:45:30;;;;;;;16.10;10.18;;;11.10;99.90;;;;;;5064354;28;20528;-84
2023/03/18 05:47:56;;;;;;;16.05;10.68;;;11.10;99.90;;;;;;5064683;28;20051;-85
2023/03/18 05:50:33;;;;;;;14.23;9.48;;;11.10;99.90;;;;;;5078501;28;20055;-84
2023/03/18 05:52:59;;;;;;;14.07;9.55;;;11.10;99.90;;;;;;5059422;28;20397;-85
2023/03/18 05:55:27;;;;;;;12.68;9.23;;;11.10;99.90;;;;;;5058882;28;20093;-85
2023/03/18 05:57:53;;;;;;;13.15;8.73;;;11.10;99.90;;;;;;5065993;28;20039;-86
2023/03/18 06:00:19;;;;;;;14.02;10.20;;;11.20;99.90;;;;;;5068432;28;20478;-84
2023/03/18 06:02:45;;;;;;;14.38;9.77;;;11.20;99.90;;;;;;5065733;28;20157;-85
2023/03/18 06:05:11;;;;;;;14.25;9.85;;;11.20;99.90;;;;;;5061985;28;20511;-85
2023/03/18 06:07:38;;;;;;;13.57;10.07;;;11.20;99.90;;;;;;5064386;28;20016;-85
2023/03/18 06:10:04;;;;;;;18.25;11.50;;;11.20;99.90;;;;;;5070100;28;20016;-83
2023/03/18 06:12:30;;;;;;;17.95;13.32;;;11.20;99.90;;;;;;5079568;28;20029;-85
2023/03/18 06:14:55;;;;;;;16.90;12.30;;;11.20;99.90;;;;;;5059315;28;20032;-85
2023/03/18 06:17:21;;;;;;;17.67;12.10;;;11.20;99.90;;;;;;5061897;28;20029;-85
2023/03/18 06:19:47;;;;;;;16.65;12.18;;;11.20;99.90;;;;;;5067410;28;20036;-85
2023/03/18 06:22:15;;;;;;;17.70;12.10;;;11.20;99.90;;;;;;5066578;28;20033;-84
2023/03/18 06:24:41;;;;;;;15.60;11.82;;;11.20;99.90;;;;;;5070572;28;20028;-84
2023/03/18 06:27:07;;;;;;;13.98;10.48;;;11.20;99.90;;;;;;5067073;28;20074;-84
2023/03/18 06:29:34;;;;;;;17.23;10.95;;;11.30;99.90;;;;;;5067609;28;20089;-84
2023/03/18 06:31:59;;;;;;;12.68;10.30;;;11.30;99.90;;;;;;5081090;28;20016;-85
2023/03/18 06:34:25;;;;;;;14.13;9.68;;;11.30;99.90;;;;;;5066883;28;20036;-84
2023/03/18 06:36:51;;;;;;;14.68;10.18;;;11.40;99.90;;;;;;5060566;28;20027;-85
2023/03/18 06:39:17;;;;;;;12.25;9.10;;;11.40;99.90;;;;;;5064908;28;20510;-85
2023/03/18 06:41:43;;;;;;;14.25;9.70;;;11.50;99.90;;;;;;5059783;28;20033;-85
2023/03/18 06:44:10;;;;;;;11.93;9.13;;;11.50;99.90;;;;;;5067011;28;20036;-85
2023/03/18 06:46:36;;;;;;;12.52;9.90;;;11.50;99.90;;;;;;5061738;28;20063;-86
2023/03/18 06:49:02;;;;;;;12.90;9.65;;;11.50;99.90;;;;;;5066967;28;20481;-85
2023/03/18 06:51:27;;;;;;;14.40;10.68;;;11.60;99.90;;;;;;5065909;28;20535;-83
2023/03/18 06:53:53;;;;;;;15.55;10.98;;;11.60;99.90;;;;;;5067091;28;20025;-84
2023/03/18 06:56:19;;;;;;;13.30;9.38;;;11.60;99.90;;;;;;5065966;28;20614;-84
2023/03/18 06:58:44;;;;;;;14.63;9.38;;;11.60;99.90;;;;;;5064635;28;20385;-84
2023/03/18 07:01:11;;;;;;;12.15;9.10;;;11.60;99.90;;;;;;5080993;28;20039;-85
2023/03/18 07:03:37;;;;;;;12.32;9.02;;;11.60;99.90;;;;;;5064087;28;20079;-83
2023/03/18 07:06:03;;;;;;;11.75;9.10;;;11.70;99.90;;;;;;5082454;28;20051;-85
2023/03/18 07:08:32;;;;;;;12.70;8.60;;;11.70;99.90;;;;;;5064333;28;20021;-85
2023/03/18 07:10:57;;;;;;;13.02;10.10;;;11.70;99.90;;;;;;5060350;28;20051;-85
2023/03/18 07:13:23;;;;;;;14.65;9.80;;;11.70;99.90;;;;;;5066334;28;20655;-86
2023/03/18 07:15:49;;;;;;;13.63;9.80;;;11.60;99.90;;;;;;5066602;28;20029;-85
2023/03/18 07:18:15;;;;;;;12.13;9.45;;;11.60;99.90;;;;;;5065869;28;20025;-85
2023/03/18 07:20:41;;;;;;;12.30;9.73;;;11.60;99.90;;;;;;5067069;28;20040;-85
2023/03/18 07:23:06;;;;;;;12.77;9.00;;;11.70;99.90;;;;;;5064162;28;20666;-85
2023/03/18 07:25:32;;;;;;;12.13;9.07;;;11.80;99.90;;;;;;5066754;28;20062;-85
2023/03/18 07:28:03;;;;;;;11.93;8.30;;;11.90;99.90;;;;;;5063996;28;20051;-84
2023/03/18 07:30:29;;;;;;;12.27;10.27;;;12.00;99.90;;;;;;5059468;28;20028;-84
2023/03/18 07:32:55;;;;;;;15.70;11.27;;;11.90;99.90;;;;;;5063310;28;20066;-84
2023/03/18 07:35:20;;;;;;;14.25;11.48;;;11.80;99.90;;;;;;5082952;28;20844;-85
2023/03/18 07:37:46;;;;;;;15.82;10.93;;;11.80;99.90;;;;;;5067243;28;20102;-85
2023/03/18 07:40:13;;;;;;;15.05;11.27;;;11.80;99.90;;;;;;5066240;28;20056;-85
2023/03/18 07:42:39;;;;;;;14.85;11.15;;;11.80;99.90;;;;;;5069203;28;20020;-85
2023/03/18 07:45:06;;;;;;;14.77;11.13;;;11.80;99.90;;;;;;5068654;28;20472;-82
2023/03/18 07:47:32;;;;;;;16.67;11.85;;;11.90;99.90;;;;;;5062434;28;20598;-86
2023/03/18 07:49:58;;;;;;;16.95;12.07;;;11.90;99.90;;;;;;5058715;28;20131;-85
2023/03/18 07:52:24;;;;;;;15.30;11.25;;;12.00;99.90;;;;;;5082651;28;20882;-84
2023/03/18 07:54:51;;;;;;;14.60;10.75;;;12.00;99.90;;;;;;5085809;28;20077;-84
2023/03/18 07:57:17;;;;;;;14.25;9.65;;;12.10;99.90;;;;;;5068753;28;20024;-86
2023/03/18 07:59:42;;;;;;;15.82;11.10;;;12.10;99.90;;;;;;5067259;28;20050;-85
2023/03/18 08:02:13;;;;;;;21.67;13.13;;;12.20;99.90;;;;;;5062792;28;20016;-85
2023/03/18 08:04:39;;;;;;;16.05;10.48;;;12.20;99.90;;;;;;5066618;28;20036;-85
2023/03/18 08:07:04;;;;;;;14.77;10.70;;;12.30;99.90;;;;;;5065792;28;20103;-82
2023/03/18 08:09:31;;;;;;;16.75;10.35;;;12.30;99.90;;;;;;5065650;28;20450;-86
2023/03/18 08:11:57;;;;;;;15.30;9.88;;;12.40;99.90;;;;;;5080107;28;20031;-85
2023/03/18 08:14:22;;;;;;;14.90;10.05;;;12.50;99.90;;;;;;5066509;28;20112;-84
2023/03/18 08:16:48;;;;;;;12.82;9.00;;;12.60;99.90;;;;;;5059836;28;20020;-85
2023/03/18 08:19:14;;;;;;;17.20;11.95;;;12.80;99.90;;;;;;5064470;28;20127;-84
2023/03/18 08:21:40;;;;;;;16.35;11.43;;;13.00;99.90;;;;;;5065676;28;20568;-84
2023/03/18 08:24:06;;;;;;;15.52;10.25;;;13.10;99.90;;;;;;5064197;28;20020;-86
2023/03/18 08:26:31;;;;;;;14.30;8.85;;;13.20;99.90;;;;;;5070064;28;20039;-84
2023/03/18 08:28:57;;;;;;;14.80;9.20;;;13.30;99.90;;;;;;5061625;28;20116;-83
2023/03/18 08:31:23;;;;;;;13.23;9.07;;;13.30;99.90;;;;;;5061286;28;20108;-83
2023/03/18 08:33:48;;;;;;;12.32;7.95;;;13.30;99.90;;;;;;5060698;28;20052;-85
2023/03/18 08:36:15;;;;;;;17.30;9.85;;;13.30;99.90;;;;;;5063027;28;20117;-85
2023/03/18 08:38:40;;;;;;;9.77;7.43;;;13.40;99.90;;;;;;5063904;28;20111;-85
2023/03/18 08:41:06;;;;;;;12.43;8.50;;;13.30;99.90;;;;;;5067853;28;20844;-85
2023/03/18 08:43:32;;;;;;;14.23;9.90;;;13.30;99.90;;;;;;5069387;28;20481;-84
2023/03/18 08:45:57;;;;;;;12.35;8.23;;;13.40;99.90;;;;;;5063856;28;20039;-86
2023/03/18 08:48:24;;;;;;;11.60;7.68;;;13.40;99.90;;;;;;5060179;28;20033;-82
2023/03/18 08:50:51;;;;;;;11.40;7.60;;;13.50;99.90;;;;;;5057263;28;20401;-82
2023/03/18 08:53:18;;;;;;;10.85;7.55;;;13.60;99.90;;;;;;5062009;28;20040;-83
2023/03/18 08:55:44;;;;;;;13.10;9.10;;;13.70;99.90;;;;;;5061183;28;20492;-85
2023/03/18 08:58:10;;;;;;;10.50;7.53;;;13.70;99.90;;;;;;5061887;28;20032;-84
2023/03/18 09:00:37;;;;;;;10.25;7.60;;;13.80;99.90;;;;;;5064783;28;20075;-83
2023/03/18 09:03:03;;;;;;;9.05;6.60;;;13.90;99.90;;;;;;5057399;28;20041;-84
2023/03/18 09:05:32;;;;;;;8.65;6.57;;;14.10;99.90;;;;;;5064768;28;20075;-86
2023/03/18 09:07:59;;;;;;;11.52;8.23;;;14.30;99.90;;;;;;5068702;28;20476;-88
2023/03/18 09:10:25;;;;;;;10.10;7.43;;;14.50;99.90;;;;;;5069447;28;20285;-85
2023/03/18 09:12:51;;;;;;;11.48;9.25;;;14.60;99.90;;;;;;5071638;28;20035;-85
2023/03/18 09:15:19;;;;;;;14.25;10.20;;;14.70;99.90;;;;;;5066378;28;20099;-84
2023/03/18 09:17:45;;;;;;;12.00;8.93;;;14.90;99.90;;;;;;5078226;28;22293;-83
2023/03/18 09:20:12;;;;;;;10.23;8.38;;;14.90;99.90;;;;;;5057619;28;20052;-86
2023/03/18 09:22:39;;;;;;;8.52;6.95;;;14.90;99.90;;;;;;5061127;28;20024;-82
2023/03/18 09:25:06;;;;;;;8.95;6.75;;;14.90;99.90;;;;;;5059940;28;20024;-83
2023/03/18 09:27:32;;;;;;;10.60;7.50;;;14.90;99.90;;;;;;5061751;28;20020;-86
2023/03/18 09:30:02;;;;;;;11.00;7.55;;;15.10;99.90;;;;;;5058445;28;20181;-85
2023/03/18 09:32:28;;;;;;;11.18;7.85;;;15.30;99.90;;;;;;5058384;28;20513;-88
2023/03/18 09:34:53;;;;;;;8.10;5.70;;;15.40;99.90;;;;;;5061616;28;20035;-87
2023/03/18 09:37:20;;;;;;;9.55;6.50;;;15.40;99.90;;;;;;5062131;28;20029;-85
2023/03/18 09:39:49;;;;;;;8.05;6.45;;;15.40;99.90;;;;;;5072775;28;20050;-84
2023/03/18 09:42:36;;;;;;;9.70;6.60;;;15.50;99.90;;;;;;5062444;28;20036;-84
2023/03/18 09:45:09;;;;;;;7.78;5.53;;;16.10;99.90;;;;;;5067689;28;20079;-84
2023/03/18 09:47:59;;;;;;;10.07;7.07;;;16.70;99.90;;;;;;5063960;28;20025;-83
2023/03/18 09:50:46;;;;;;;7.95;5.95;;;17.60;99.90;;;;;;5061931;28;20102;-83
2023/03/18 09:53:15;;;;;;;8.35;7.05;;;18.90;99.90;;;;;;5064077;28;20047;-83
2023/03/18 09:55:46;;;;;;;9.07;6.75;;;20.10;99.90;;;;;;5069933;28;20021;-84
2023/03/18 09:58:45;;;;;;;9.38;6.40;;;20.40;99.90;;;;;;5067198;28;20104;-85
2023/03/18 10:01:12;;;;;;;8.05;5.90;;;21.10;99.90;;;;;;5084573;28;20051;-84
2023/03/18 10:03:43;;;;;;;8.57;5.72;;;21.20;99.90;;;;;;5083451;28;20032;-85
2023/03/18 10:06:16;;;;;;;6.25;4.20;;;21.30;99.90;;;;;;5062775;28;20218;-86
2023/03/18 10:09:04;;;;;;;7.22;4.00;;;21.70;99.90;;;;;;5067760;28;20063;-84
2023/03/18 10:11:41;;;;;;;6.32;4.50;;;22.20;99.90;;;;;;5073669;28;20052;-88
2023/03/18 10:14:44;;;;;;;6.80;4.78;;;22.00;99.90;;;;;;5070390;28;20029;-87
2023/03/18 10:17:29;;;;;;;5.53;4.20;;;21.20;99.90;;;;;;5071373;28;20093;-85
2023/03/18 10:20:02;;;;;;;4.68;3.42;;;20.60;99.90;;;;;;5068555;28;20043;-86
2023/03/18 10:22:47;;;;;;;6.78;4.60;;;20.20;99.90;;;;;;5070367;28;20027;-86
2023/03/18 10:25:33;;;;;;;7.18;5.40;;;20.00;99.90;;;;;;5072479;28;20079;-86
2023/03/18 10:28:08;;;;;;;7.25;3.97;;;19.70;99.90;;;;;;5065516;28;20028;-86
2023/03/18 10:30:53;;;;;;;5.72;3.97;;;19.40;99.90;;;;;;5069440;28;20041;-85
2023/03/18 10:33:45;;;;;;;5.00;3.10;;;19.30;99.90;;;;;;5070434;28;20024;-88
2023/03/18 10:36:15;;;;;;;4.78;3.40;;;19.50;99.90;;;;;;5069767;28;20025;-88
2023/03/18 10:38:48;;;;;;;5.13;3.60;;;19.50;99.90;;;;;;5093489;28;20033;-86
2023/03/18 10:41:17;;;;;;;4.88;3.42;;;19.60;99.90;;;;;;5070756;28;20047;-87
2023/03/18 10:43:44;;;;;;;5.25;3.25;;;19.60;99.90;;;;;;5073665;28;20024;-88
2023/03/18 10:46:14;;;;;;;3.90;3.08;;;19.60;99.90;;;;;;5074153;28;20020;-87
2023/03/18 10:49:08;;;;;;;6.05;3.72;;;19.90;99.90;;;;;;5066586;28;20024;-86
2023/03/18 10:51:51;;;;;;;4.88;3.30;;;20.50;99.90;;;;;;5071533;28;20029;-86
2023/03/18 10:54:39;;;;;;;4.45;3.30;;;21.10;99.90;;;;;;5069487;28;20090;-88
2023/03/18 10:57:05;;;;;;;5.50;3.10;;;22.50;99.90;;;;;;5065170;28;20032;-85
2023/03/18 10:59:33;;;;;;;4.65;2.10;;;23.40;99.90;;;;;;5067038;28;20068;-87
2023/03/18 11:02:03;;;;;;;4.90;2.05;;;24.20;99.90;;;;;;5070303;28;20909;-87
2023/03/18 11:04:42;;;;;;;3.10;2.05;;;24.50;99.90;;;;;;5088428;28;20168;-87
2023/03/18 11:07:17;;;;;;;2.95;1.63;;;25.10;99.90;;;;;;5069875;28;20020;-86
2023/03/18 11:09:43;;;;;;;3.47;1.73;;;25.70;99.90;;;;;;5088752;28;20404;-88
2023/03/18 11:12:22;;;;;;;3.30;1.83;;;26.10;99.90;;;;;;5072682;28;20112;-87
2023/03/18 11:14:49;;;;;;;2.75;1.27;;;25.60;99.90;;;;;;5068883;28;20043;-86
2023/03/18 11:17:26;;;;;;;3.30;1.80;;;24.80;99.90;;;;;;5069506;28;20028;-88
2023/03/18 11:20:20;;;;;;;3.25;1.75;;;24.90;99.90;;;;;;5068283;28;20050;-85
2023/03/18 11:22:50;;;;;;;3.83;1.50;;;24.90;99.90;;;;;;5066016;28;20026;-88
2023/03/18 11:25:25;;;;;;;2.50;1.60;;;25.40;99.90;;;;;;5067094;28;20028;-88
2023/03/18 11:28:19;;;;;;;2.53;1.20;;;25.90;99.90;;;;;;5068367;28;20494;-86
2023/03/18 11:30:56;;;;;;;1.58;0.98;;;25.70;99.90;;;;;;5053437;28;20509;-86
2023/03/18 11:33:31;;;;;;;2.88;1.33;;;25.70;99.90;;;;;;5064870;28;20028;-88
2023/03/18 11:35:59;;;;;;;3.72;1.70;;;25.90;99.90;;;;;;5065099;28;20024;-86
2023/03/18 11:38:33;;;;;;;3.03;1.33;;;25.60;99.90;;;;;;5077327;28;20024;-87
2023/03/18 11:41:21;;;;;;;3.78;1.80;;;25.80;99.90;;;;;;5064873;28;20105;-87
2023/03/18 11:44:05;;;;;;;4.15;1.58;;;26.60;99.90;;;;;;5063047;28;20028;-86
2023/03/18 11:46:44;;;;;;;2.95;1.42;;;27.10;99.90;;;;;;5063042;28;20025;-85
2023/03/18 11:49:16;;;;;;;2.92;1.67;;;26.90;99.90;;;;;;5063029;28;20213;-87
2023/03/18 11:52:07;;;;;;;2.55;1.33;;;25.70;99.90;;;;;;5060603;28;20020;-86
2023/03/18 11:54:39;;;;;;;3.42;1.60;;;24.50;99.90;;;;;;5059270;28;20127;-85
2023/03/18 11:57:32;;;;;;;1.73;1.15;;;23.80;99.90;;;;;;5061660;28;20123;-84
2023/03/18 12:00:07;;;;;;;2.80;1.27;;;23.50;99.90;;;;;;5061845;28;20109;-86
2023/03/18 12:02:48;;;;;;;2.35;1.17;;;23.40;99.90;;;;;;5061174;28;20131;-84
2023/03/18 12:05:35;;;;;;;2.97;1.38;;;23.20;99.90;;;;;;5062884;28;20032;-88
2023/03/18 12:08:29;;;;;;;3.03;1.55;;;22.80;99.90;;;;;;5061657;28;20036;-83
2023/03/18 12:11:18;;;;;;;2.33;1.38;;;22.30;99.90;;;;;;5077016;28;20032;-82
2023/03/18 12:14:04;;;;;;;3.38;1.83;;;21.60;99.90;;;;;;5059449;28;20042;-86
2023/03/18 12:16:47;;;;;;;3.38;1.95;;;20.80;99.90;;;;;;5063333;28;20017;-85
2023/03/18 12:19:13;;;;;;;3.08;1.77;;;20.10;99.90;;;;;;5054685;28;20020;-85
2023/03/18 12:22:15;;;;;;;2.28;1.30;;;19.60;99.90;;;;;;5059399;28;20078;-82
2023/03/18 12:24:57;;;;;;;3.20;1.70;;;19.50;99.90;;;;;;5061108;28;20028;-82
2023/03/18 12:27:54;;;;;;;2.95;1.15;;;19.40;99.90;;;;;;5061897;28;20024;-85
2023/03/18 12:30:38;;;;;;;3.42;1.65;;;19.30;99.90;;;;;;5065436;28;20029;-80
2023/03/18 12:33:27;;;;;;;1.95;1.35;;;19.10;99.90;;;;;;5068919;28;20127;-82
2023/03/18 12:36:18;;;;;;;2.75;1.63;;;18.90;99.90;;;;;;5060518;28;20482;-81
2023/03/18 12:39:04;;;;;;;3.10;2.40;;;18.90;99.90;;;;;;5067569;28;20029;-85
2023/03/18 12:41:39;;;;;;;3.10;2.05;;;18.70;99.90;;;;;;5075030;28;20028;-83
2023/03/18 12:44:20;;;;;;;4.45;2.47;;;18.60;99.90;;;;;;5067356;28;20032;-81
2023/03/18 12:46:58;;;;;;;4.45;2.47;;;18.60;99.90;;;;;;5066312;28;20032;-80
2023/03/18 12:49:43;;;;;;;6.20;2.70;;;18.60;99.90;;;;;;5061610;28;20029;-83
2023/03/18 12:52:24;;;;;;;3.13;1.85;;;18.50;99.90;;;;;;5063852;28;20110;-86
2023/03/18 12:55:00;;;;;;;3.67;2.38;;;18.50;99.90;;;;;;5080748;28;20032;-84